Time;durP1;ratioP1;P1;durP2;ratioP2;P2;SDS_P1;SDS_P2;PMS_P1;PMS_P2;Temp;Humidity;BMP_temperature;BMP_pressure;BME280_temperature;BME280_humidity;BME280_pressure;Samples;Min_cycle;Max_cycle;Signal;HPM_P1;HPM_P2
2023/01/16 00:02:05;;;;;;;165.10;86.90;;;;;;;5.85;100.00;99622.19;4939277;29;20040;-85
2023/01/16 00:04:35;;;;;;;154.70;85.68;;;;;;;5.96;100.00;99625.44;4970555;23;20020;-82
2023/01/16 00:07:01;;;;;;;160.55;83.88;;;;;;;6.15;100.00;99627.03;4902748;29;20043;-86
2023/01/16 00:09:26;;;;;;;153.25;81.18;;;;;;;6.09;100.00;99614.50;4903144;29;20036;-85
2023/01/16 00:11:52;;;;;;;149.93;82.15;;;;;;;6.09;100.00;99598.72;4919489;29;20073;-85
2023/01/16 00:14:17;;;;;;;145.27;80.07;;;;;;;6.00;100.00;99595.19;4919868;29;20150;-84
2023/01/16 00:16:43;;;;;;;151.50;82.47;;;;;;;6.01;100.00;99585.50;4902912;29;20044;-84
2023/01/16 00:19:08;;;;;;;147.50;78.03;;;;;;;6.30;100.00;99580.72;4919328;29;20040;-83
2023/01/16 00:21:34;;;;;;;147.35;78.35;;;;;;;6.24;100.00;99565.56;4919589;29;20044;-85
2023/01/16 00:23:59;;;;;;;146.82;77.40;;;;;;;6.23;100.00;99563.94;4919570;29;20042;-85
2023/01/16 00:26:27;;;;;;;145.65;79.90;;;;;;;6.14;100.00;99565.69;4871813;29;20040;-85
2023/01/16 00:28:53;;;;;;;143.05;75.53;;;;;;;6.27;100.00;99553.91;4902405;29;20115;-84
2023/01/16 00:31:25;;;;;;;135.25;75.00;;;;;;;6.26;100.00;99558.38;4919572;29;20525;-89
2023/01/16 00:33:51;;;;;;;135.40;76.15;;;;;;;6.33;100.00;99567.25;4887705;29;20040;-85
2023/01/16 00:36:17;;;;;;;136.43;75.82;;;;;;;6.41;100.00;99567.28;4917861;29;20036;-84
2023/01/16 00:38:42;;;;;;;133.65;74.00;;;;;;;6.46;100.00;99551.88;4901767;29;20066;-81
2023/01/16 00:41:08;;;;;;;135.52;72.90;;;;;;;6.46;100.00;99543.97;4901655;29;20040;-83
2023/01/16 00:43:34;;;;;;;132.98;74.50;;;;;;;6.40;100.00;99544.59;4918169;29;20091;-84
2023/01/16 00:46:00;;;;;;;133.48;74.80;;;;;;;6.37;100.00;99523.84;4911704;29;20089;-86
2023/01/16 00:48:25;;;;;;;134.30;73.18;;;;;;;6.44;100.00;99521.41;4900014;29;20131;-85
2023/01/16 00:50:51;;;;;;;137.82;74.85;;;;;;;6.52;100.00;99517.00;4912276;29;20036;-84
2023/01/16 00:53:16;;;;;;;137.65;75.55;;;;;;;6.37;100.00;99507.22;4909614;29;20111;-84
2023/01/16 00:55:42;;;;;;;135.90;73.45;;;;;;;6.42;100.00;99507.59;4899031;29;20041;-84
2023/01/16 00:58:09;;;;;;;134.05;72.53;;;;;;;6.41;100.00;99514.66;4899470;29;20033;-84
2023/01/16 01:00:35;;;;;;;139.20;75.07;;;;;;;6.39;100.00;99521.91;4898916;29;20531;-84
2023/01/16 01:03:02;;;;;;;138.02;73.55;;;;;;;6.35;100.00;99520.56;4899564;29;20036;-85
2023/01/16 01:05:27;;;;;;;144.40;76.20;;;;;;;6.20;100.00;99520.34;4900344;29;20041;-84
2023/01/16 01:07:53;;;;;;;153.85;79.78;;;;;;;5.93;100.00;99525.00;4899916;29;20070;-83
2023/01/16 01:10:19;;;;;;;154.52;80.15;;;;;;;5.82;100.00;99527.84;4899518;29;20076;-82
2023/01/16 01:12:44;;;;;;;151.23;81.75;;;;;;;5.91;100.00;99529.56;4899677;29;20036;-82
2023/01/16 01:15:10;;;;;;;145.82;77.65;;;;;;;5.83;100.00;99527.72;4898958;29;20041;-83
2023/01/16 01:17:35;;;;;;;144.85;79.25;;;;;;;5.80;100.00;99525.38;4899032;29;20073;-83
2023/01/16 01:20:01;;;;;;;146.80;76.57;;;;;;;6.01;100.00;99517.13;4881857;29;20149;-84
2023/01/16 01:22:27;;;;;;;144.10;76.32;;;;;;;5.95;100.00;99508.06;4898819;29;20059;-82
2023/01/16 01:24:52;;;;;;;143.95;73.75;;;;;;;5.84;100.00;99486.44;4899467;29;20037;-83
2023/01/16 01:27:18;;;;;;;139.38;71.60;;;;;;;5.89;100.00;99481.59;4899112;29;20036;-82
2023/01/16 01:29:44;;;;;;;139.43;73.47;;;;;;;5.86;100.00;99471.38;4884524;29;20519;-82
2023/01/16 01:32:10;;;;;;;131.23;71.18;;;;;;;6.00;100.00;99466.34;4907662;29;20037;-83
2023/01/16 01:34:35;;;;;;;131.50;71.03;;;;;;;6.17;100.00;99475.09;4909286;29;20112;-82
2023/01/16 01:37:02;;;;;;;134.13;70.93;;;;;;;6.26;100.00;99479.44;4907017;29;20127;-83
2023/01/16 01:39:27;;;;;;;125.80;69.07;;;;;;;6.21;100.00;99486.97;4902176;29;20128;-83
2023/01/16 01:42:41;;;;;;;124.50;67.63;;;;;;;6.17;100.00;99481.19;4886702;29;20060;-84
2023/01/16 01:44:50;;;;;;;129.68;67.32;;;;;;;6.20;100.00;99477.41;4903130;29;20037;-83
2023/01/16 01:47:20;;;;;;;118.15;65.00;;;;;;;6.36;100.00;99471.41;4903237;29;20041;-83
2023/01/16 01:49:47;;;;;;;119.88;64.65;;;;;;;6.40;100.00;99483.22;4902867;29;20048;-83
2023/01/16 01:52:13;;;;;;;126.57;66.60;;;;;;;6.26;100.00;99474.19;4902245;29;20048;-84
2023/01/16 01:54:44;;;;;;;122.47;65.47;;;;;;;6.41;100.00;99472.56;4903249;29;20040;-84
2023/01/16 01:57:16;;;;;;;119.45;62.60;;;;;;;6.44;100.00;99471.41;4887724;29;20036;-83
2023/01/16 01:59:50;;;;;;;117.25;64.13;;;;;;;6.61;100.00;99463.38;4909830;29;20092;-81
2023/01/16 02:02:20;;;;;;;109.05;62.15;;;;;;;6.73;100.00;99459.44;4907824;29;20484;-82
2023/01/16 02:04:51;;;;;;;112.43;61.53;;;;;;;6.77;100.00;99452.03;4888168;29;20059;-84
2023/01/16 02:07:19;;;;;;;109.53;59.53;;;;;;;6.82;100.00;99446.28;4904397;29;20507;-86
2023/01/16 02:09:45;;;;;;;110.22;60.45;;;;;;;6.64;100.00;99442.00;4887216;29;20092;-85
2023/01/16 02:12:13;;;;;;;120.40;64.40;;;;;;;6.28;100.00;99435.34;4903310;29;20068;-85
2023/01/16 02:14:42;;;;;;;116.55;63.03;;;;;;;6.23;100.00;99435.03;4902655;29;20429;-84
2023/01/16 02:20:09;;;;;;;110.20;60.78;;;;;;;6.41;100.00;99425.19;4902963;29;20040;-84
2023/01/16 02:22:53;;;;;;;118.25;64.63;;;;;;;6.27;100.00;99419.72;4870471;29;20048;-84
2023/01/16 02:25:56;;;;;;;121.07;65.25;;;;;;;6.18;100.00;99405.75;4902385;29;20033;-83
2023/01/16 02:28:33;;;;;;;122.97;67.17;;;;;;;6.02;100.00;99388.13;4885597;29;20193;-84
2023/01/16 02:31:10;;;;;;;117.75;65.57;;;;;;;6.03;100.00;99383.69;4902503;29;20044;-83
2023/01/16 02:33:45;;;;;;;117.53;64.10;;;;;;;6.14;100.00;99386.81;4883351;29;20168;-83
2023/01/16 02:36:40;;;;;;;119.80;64.25;;;;;;;6.09;100.00;99377.78;4900585;29;20044;-82
2023/01/16 02:39:20;;;;;;;113.30;60.67;;;;;;;6.07;100.00;99369.22;4900197;29;20041;-86
2023/01/16 02:42:16;;;;;;;113.15;60.42;;;;;;;6.19;100.00;99360.03;4907393;29;20048;-84
2023/01/16 02:45:12;;;;;;;113.50;61.63;;;;;;;5.99;100.00;99359.50;4908320;29;20037;-84
2023/01/16 02:47:55;;;;;;;114.82;61.55;;;;;;;5.97;100.00;99344.84;4911630;29;20041;-84
2023/01/16 02:51:07;;;;;;;115.38;62.25;;;;;;;5.76;100.00;99344.47;4910860;29;20040;-83
2023/01/16 02:53:41;;;;;;;125.25;66.40;;;;;;;5.68;100.00;99338.19;4874204;29;20045;-84
2023/01/16 02:56:12;;;;;;;119.53;64.78;;;;;;;5.68;100.00;99340.81;4901859;29;20037;-84
2023/01/16 02:58:42;;;;;;;118.43;63.67;;;;;;;5.69;100.00;99334.59;4886204;29;20043;-86
2023/01/16 03:01:09;;;;;;;117.82;61.83;;;;;;;5.59;100.00;99331.28;4902340;29;20060;-84
2023/01/16 03:04:11;;;;;;;110.20;59.60;;;;;;;5.57;100.00;99330.59;4886371;29;20044;-85
2023/01/16 03:07:13;;;;;;;113.40;59.25;;;;;;;5.53;100.00;99326.66;4842460;29;20501;-83
2023/01/16 03:10:00;;;;;;;107.28;56.45;;;;;;;5.73;100.00;99317.50;4901271;29;20076;-84
2023/01/16 03:12:52;;;;;;;108.75;57.72;;;;;;;5.67;100.00;99319.94;4884268;29;20449;-87
2023/01/16 03:15:26;;;;;;;;;;;;;;;5.70;100.00;99325.72;4900444;29;20096;-84
2023/01/16 03:18:23;;;;;;;101.97;54.70;;;;;;;5.59;100.00;99327.81;4900263;29;20359;-84
2023/01/16 03:21:10;;;;;;;98.55;54.13;;;;;;;5.78;100.00;99321.47;4883438;29;20123;-83
2023/01/16 03:23:41;;;;;;;95.25;51.65;;;;;;;5.71;100.00;99332.63;4869155;29;20051;-84
2023/01/16 03:26:31;;;;;;;96.38;52.78;;;;;;;5.67;100.00;99328.66;4883322;29;20189;-84
2023/01/16 03:29:17;;;;;;;99.00;51.50;;;;;;;5.48;100.00;99323.69;4899143;29;20048;-84
2023/01/16 03:31:53;;;;;;;93.32;51.63;;;;;;;5.44;100.00;99311.84;4882890;29;20044;-84
2023/01/16 03:34:33;;;;;;;88.05;50.28;;;;;;;5.58;100.00;99302.53;4899934;29;20044;-85
2023/01/16 03:37:01;;;;;;;92.55;51.40;;;;;;;5.64;100.00;99312.38;4899898;29;20131;-83
2023/01/16 03:39:32;;;;;;;88.88;50.65;;;;;;;5.51;100.00;99298.88;4899971;29;20181;-82
2023/01/16 03:42:04;;;;;;;92.93;51.60;;;;;;;5.63;100.00;99295.00;4899411;29;20049;-84
2023/01/16 03:44:37;;;;;;;91.88;48.78;;;;;;;5.68;100.00;99284.81;4883245;29;20119;-85
2023/01/16 03:47:08;;;;;;;88.07;48.38;;;;;;;5.72;100.00;99286.97;4899492;29;20089;-84
2023/01/16 03:49:45;;;;;;;62.63;34.30;;;;;;;5.77;100.00;99280.41;4900467;29;20029;-83
2023/01/16 03:52:15;;;;;;;87.53;50.03;;;;;;;5.68;100.00;99275.13;4883102;29;20088;-84
2023/01/16 03:55:19;;;;;;;89.05;49.50;;;;;;;5.57;100.00;99270.16;4899774;29;20048;-83
2023/01/16 03:57:57;;;;;;;85.93;49.50;;;;;;;5.50;100.00;99256.00;4887025;29;20053;-85
2023/01/16 04:00:36;;;;;;;85.28;47.60;;;;;;;5.48;100.00;99255.34;4899989;29;20116;-84
2023/01/16 04:03:09;;;;;;;87.43;49.08;;;;;;;5.21;100.00;99243.28;4899032;29;20040;-84
2023/01/16 04:06:05;;;;;;;90.53;49.90;;;;;;;5.23;100.00;99235.28;4899137;29;20040;-84
2023/01/16 04:08:37;;;;;;;90.22;49.38;;;;;;;4.93;100.00;99225.31;4899165;29;20044;-84
2023/01/16 04:11:03;;;;;;;84.00;47.25;;;;;;;4.97;100.00;99216.13;4882549;29;20182;-85
2023/01/16 04:13:34;;;;;;;84.10;48.08;;;;;;;5.04;100.00;99209.25;4899492;29;20111;-86
2023/01/16 04:16:04;;;;;;;86.20;48.00;;;;;;;5.09;100.00;99214.84;4901450;29;20055;-85
2023/01/16 04:18:32;;;;;;;85.00;48.25;;;;;;;5.06;100.00;99223.06;4910240;29;20044;-84
2023/01/16 04:20:58;;;;;;;83.68;47.55;;;;;;;4.90;100.00;99221.19;4916064;29;20100;-83
2023/01/16 04:23:24;;;;;;;79.40;45.20;;;;;;;5.00;100.00;99226.31;4916634;29;20032;-83
2023/01/16 04:25:50;;;;;;;81.30;47.85;;;;;;;4.51;100.00;99231.31;4888957;29;20044;-83
2023/01/16 04:28:16;;;;;;;83.90;45.63;;;;;;;4.35;100.00;99231.22;4904031;29;20091;-84
2023/01/16 04:30:41;;;;;;;86.32;47.35;;;;;;;4.28;100.00;99224.94;4917683;29;20085;-83
2023/01/16 04:33:07;;;;;;;82.72;46.85;;;;;;;4.09;100.00;99222.50;4917505;29;20032;-86
2023/01/16 04:35:33;;;;;;;86.22;44.80;;;;;;;4.22;100.00;99207.19;4918146;29;20032;-85
2023/01/16 04:37:59;;;;;;;88.40;41.65;;;;;;;4.23;100.00;99206.22;4917434;29;20040;-83
2023/01/16 04:40:25;;;;;;;94.13;39.00;;;;;;;4.25;100.00;99204.28;4919137;29;20032;-84
2023/01/16 04:42:51;;;;;;;105.72;40.47;;;;;;;4.18;100.00;99198.81;4917672;29;20040;-84
2023/01/16 04:45:17;;;;;;;71.75;40.72;;;;;;;4.23;100.00;99206.22;4900666;29;20038;-84
2023/01/16 04:47:47;;;;;;;91.93;40.22;;;;;;;3.98;100.00;99209.63;4917698;29;20051;-83
2023/01/16 04:50:12;;;;;;;93.28;41.88;;;;;;;3.86;100.00;99208.25;4900308;29;20108;-84
2023/01/16 04:52:38;;;;;;;83.15;41.67;;;;;;;3.59;100.00;99207.38;4917805;29;20068;-85
2023/01/16 04:55:04;;;;;;;78.43;43.97;;;;;;;3.56;100.00;99204.22;4901057;29;20043;-84
2023/01/16 04:57:29;;;;;;;78.40;42.97;;;;;;;3.54;100.00;99203.56;4918297;29;20092;-83
2023/01/16 04:59:55;;;;;;;88.95;46.70;;;;;;;3.59;100.00;99202.13;4918819;29;20119;-85
2023/01/16 05:02:20;;;;;;;77.35;43.60;;;;;;;3.82;100.00;99201.66;4917042;29;20036;-84
2023/01/16 05:04:46;;;;;;;82.72;44.85;;;;;;;3.92;100.00;99195.34;4916467;29;20388;-84
2023/01/16 05:07:11;;;;;;;79.20;43.60;;;;;;;3.89;100.00;99197.44;4916141;29;20055;-83
2023/01/16 05:09:37;;;;;;;79.18;44.65;;;;;;;3.91;100.00;99188.47;4916727;29;20040;-84
2023/01/16 05:12:02;;;;;;;78.78;44.83;;;;;;;4.00;100.00;99190.19;4917140;29;20036;-84
2023/01/16 05:14:28;;;;;;;87.90;44.80;;;;;;;4.06;100.00;99186.13;4920343;29;20399;-83
2023/01/16 05:16:53;;;;;;;79.47;43.70;;;;;;;3.95;100.00;99181.94;4920998;29;20040;-82
2023/01/16 05:19:19;;;;;;;80.20;43.30;;;;;;;4.03;100.00;99176.78;4921121;29;20123;-83
2023/01/16 05:21:44;;;;;;;82.00;44.22;;;;;;;4.12;100.00;99173.22;4920912;29;20043;-84
2023/01/16 05:24:10;;;;;;;83.03;45.10;;;;;;;4.05;100.00;99176.59;4921534;29;20100;-84
2023/01/16 05:26:36;;;;;;;80.93;44.97;;;;;;;4.02;100.00;99176.91;4911129;29;20040;-85
2023/01/16 05:29:01;;;;;;;86.80;44.40;;;;;;;3.90;100.00;99172.91;4922788;29;20033;-86
2023/01/16 05:31:27;;;;;;;86.07;45.50;;;;;;;3.96;100.00;99169.66;4904756;29;20411;-79
2023/01/16 05:33:53;;;;;;;84.35;44.38;;;;;;;4.16;100.00;99163.25;4925577;29;20036;-81
2023/01/16 05:36:18;;;;;;;82.90;43.10;;;;;;;4.30;100.00;99157.44;4920391;29;20067;-81
2023/01/16 05:38:44;;;;;;;82.18;43.17;;;;;;;4.35;100.00;99157.78;4924119;29;20064;-84
2023/01/16 05:41:09;;;;;;;83.97;42.75;;;;;;;4.36;100.00;99151.56;4910848;29;20024;-83
2023/01/16 05:43:35;;;;;;;86.60;44.58;;;;;;;4.12;100.00;99138.31;4904148;29;20067;-82
2023/01/16 05:46:02;;;;;;;86.38;44.70;;;;;;;4.23;100.00;99138.06;4920362;29;20565;-83
2023/01/16 05:48:30;;;;;;;91.32;47.20;;;;;;;4.34;100.00;99135.16;4905684;29;20071;-83
2023/01/16 05:50:56;;;;;;;87.50;46.53;;;;;;;4.25;100.00;99127.41;4903310;29;20464;-81
2023/01/16 05:53:22;;;;;;;91.53;49.03;;;;;;;4.21;100.00;99133.94;4920717;29;20063;-81
2023/01/16 05:55:47;;;;;;;92.00;48.35;;;;;;;4.35;100.00;99125.47;4902943;29;20044;-79
2023/01/16 05:58:15;;;;;;;91.10;47.25;;;;;;;4.22;100.00;99125.91;4918026;29;20032;-82
2023/01/16 06:00:43;;;;;;;95.57;48.80;;;;;;;4.36;100.00;99121.88;4920004;29;20115;-80
2023/01/16 06:03:08;;;;;;;100.43;49.05;;;;;;;4.11;100.00;99123.56;4918098;29;20436;-81
2023/01/16 06:05:35;;;;;;;91.03;47.58;;;;;;;4.15;100.00;99124.88;4921981;29;20074;-81
2023/01/16 06:08:00;;;;;;;101.45;50.50;;;;;;;4.04;100.00;99128.59;4889031;29;20105;-80
2023/01/16 06:10:27;;;;;;;101.45;49.60;;;;;;;4.14;100.00;99124.06;4919319;29;20127;-80
2023/01/16 06:12:53;;;;;;;97.53;50.75;;;;;;;4.16;100.00;99123.91;4919617;29;20095;-80
2023/01/16 06:15:18;;;;;;;95.15;49.75;;;;;;;4.31;100.00;99126.78;4919572;29;20380;-81
2023/01/16 06:17:45;;;;;;;96.95;48.67;;;;;;;4.28;100.00;99127.91;4902400;29;20059;-79
2023/01/16 06:20:11;;;;;;;101.72;50.45;;;;;;;3.91;100.00;99109.03;4919348;29;20032;-80
2023/01/16 06:22:36;;;;;;;101.28;50.50;;;;;;;3.68;100.00;99115.75;4919546;29;20491;-82
2023/01/16 06:25:02;;;;;;;107.38;50.30;;;;;;;3.59;100.00;99109.63;4887382;29;20036;-80
2023/01/16 06:27:28;;;;;;;111.75;53.13;;;;;;;3.49;100.00;99107.09;4919447;29;20035;-80
2023/01/16 06:29:54;;;;;;;112.10;53.05;;;;;;;3.40;100.00;99099.31;4919381;29;20036;-81
2023/01/16 06:32:19;;;;;;;111.50;53.10;;;;;;;3.42;100.00;99092.94;4920620;29;20119;-82
2023/01/16 06:34:45;;;;;;;122.78;52.40;;;;;;;3.29;100.00;99095.13;4921116;29;20040;-85
2023/01/16 06:37:11;;;;;;;110.35;52.95;;;;;;;3.26;100.00;99103.28;4920837;29;20071;-84
2023/01/16 06:39:37;;;;;;;109.93;53.72;;;;;;;3.32;100.00;99099.25;4921032;29;20039;-81
2023/01/16 06:42:04;;;;;;;113.32;53.83;;;;;;;3.29;100.00;99097.75;4905235;29;20498;-81
2023/01/16 06:44:31;;;;;;;108.22;51.92;;;;;;;3.34;100.00;99089.47;4920405;29;20115;-83
2023/01/16 06:46:56;;;;;;;109.00;52.38;;;;;;;3.25;100.00;99078.06;4919191;29;20575;-82
2023/01/16 06:49:22;;;;;;;109.25;53.70;;;;;;;3.17;100.00;99082.44;4903091;29;20111;-84
2023/01/16 06:51:48;;;;;;;128.45;59.28;;;;;;;3.04;100.00;99085.44;4918111;29;20051;-82
2023/01/16 06:54:13;;;;;;;128.27;60.05;;;;;;;3.11;100.00;99073.41;4918871;29;20028;-83
2023/01/16 06:56:39;;;;;;;129.75;58.55;;;;;;;3.07;100.00;99069.44;4901514;29;20070;-82
2023/01/16 06:59:04;;;;;;;124.90;59.25;;;;;;;3.07;100.00;99059.78;4901178;29;20044;-83
2023/01/16 07:01:30;;;;;;;145.13;61.95;;;;;;;2.90;100.00;99070.25;4918359;29;20495;-83
2023/01/16 07:03:55;;;;;;;127.75;60.75;;;;;;;2.89;100.00;99055.50;4919790;29;20095;-84
2023/01/16 07:06:24;;;;;;;134.57;63.13;;;;;;;2.96;100.00;99054.75;4917923;29;20044;-82
2023/01/16 07:08:50;;;;;;;140.27;63.72;;;;;;;2.89;100.00;99053.72;4901650;29;20021;-81
2023/01/16 07:11:17;;;;;;;143.70;62.83;;;;;;;2.72;100.00;99058.97;4918419;29;20051;-82
2023/01/16 07:13:43;;;;;;;150.93;64.68;;;;;;;2.80;100.00;99046.78;4918406;29;20040;-83
2023/01/16 07:24:37;;;;;;;148.02;66.50;;;;;;;3.35;100.00;99026.44;4918800;29;20039;-84
2023/01/16 07:27:05;;;;;;;146.73;68.50;;;;;;;3.58;100.00;99017.09;4918396;29;20116;-83
2023/01/16 07:29:33;;;;;;;147.75;66.10;;;;;;;3.74;100.00;99011.16;4901269;29;20051;-83
2023/01/16 07:32:00;;;;;;;149.75;70.00;;;;;;;3.71;100.00;98995.75;4918165;29;20043;-82
2023/01/16 07:34:25;;;;;;;151.30;72.07;;;;;;;3.84;100.00;99000.56;4886335;29;20032;-83
2023/01/16 07:36:51;;;;;;;156.32;74.03;;;;;;;3.61;100.00;98998.47;4917761;29;20480;-83
2023/01/16 07:39:17;;;;;;;153.02;70.18;;;;;;;3.78;100.00;98993.34;4920548;29;20040;-83
2023/01/16 07:41:42;;;;;;;154.07;73.35;;;;;;;3.77;100.00;98997.75;4917876;29;20495;-82
2023/01/16 07:44:09;;;;;;;149.32;72.50;;;;;;;4.04;100.00;98988.88;4901522;29;20043;-85
2023/01/16 07:46:34;;;;;;;149.75;72.78;;;;;;;4.00;100.00;98998.00;4918023;29;20040;-82
2023/01/16 07:49:00;;;;;;;147.18;69.35;;;;;;;4.14;100.00;98994.81;4917809;29;20043;-83
2023/01/16 07:51:27;;;;;;;142.27;69.85;;;;;;;4.38;100.00;98994.03;4917531;29;20036;-83
2023/01/16 07:53:52;;;;;;;144.48;70.15;;;;;;;4.60;100.00;98993.44;4917804;29;20115;-82
2023/01/16 07:56:18;;;;;;;140.77;68.88;;;;;;;4.80;100.00;98993.97;4917384;29;20036;-83
2023/01/16 07:58:43;;;;;;;143.43;67.82;;;;;;;4.89;100.00;98996.44;4918029;29;20036;-85
2023/01/16 08:01:10;;;;;;;132.65;65.63;;;;;;;4.89;100.00;98998.22;4901225;29;20038;-83
2023/01/16 08:03:37;;;;;;;129.20;61.58;;;;;;;5.24;100.00;98994.47;4918636;29;20494;-83
2023/01/16 08:06:03;;;;;;;122.40;62.75;;;;;;;5.17;100.00;98996.94;4919782;29;20036;-82
2023/01/16 08:08:40;;;;;;;113.68;57.10;;;;;;;5.29;100.00;98985.09;5133548;27;20326;-83
2023/01/16 08:13:52;;;;;;;105.53;53.83;;;;;;;5.51;100.00;98976.50;5112331;28;20404;-81
2023/01/16 08:16:18;;;;;;;110.45;55.53;;;;;;;5.47;100.00;98972.56;5093926;28;20038;-82
2023/01/16 08:18:43;;;;;;;110.53;55.55;;;;;;;5.55;100.00;98962.06;5110298;28;20125;-84
2023/01/16 08:21:09;;;;;;;109.88;55.17;;;;;;;5.52;100.00;98958.94;5112042;28;20032;-84
2023/01/16 08:23:34;;;;;;;122.40;60.67;;;;;;;4.92;100.00;98955.91;5111433;28;20078;-84
2023/01/16 08:26:00;;;;;;;101.15;51.20;;;;;;;4.45;100.00;98953.06;5110808;28;20130;-82
2023/01/16 08:28:26;;;;;;;108.90;53.90;;;;;;;4.21;100.00;98961.69;5110662;28;20372;-84
2023/01/16 08:30:51;;;;;;;110.05;52.35;;;;;;;4.47;100.00;98953.75;5110676;28;20400;-81
2023/01/16 08:33:17;;;;;;;106.90;50.60;;;;;;;4.92;100.00;98942.78;5109196;28;20038;-83
2023/01/16 08:35:42;;;;;;;102.80;51.88;;;;;;;4.98;100.00;98948.19;5110583;28;20118;-82
2023/01/16 08:38:08;;;;;;;110.55;52.70;;;;;;;4.88;100.00;98965.06;5109673;28;20085;-81
2023/01/16 08:40:33;;;;;;;106.53;52.63;;;;;;;5.05;100.00;98953.59;5110733;28;20035;-85
2023/01/16 08:51:22;;;;;;;101.15;48.95;;;;;;;5.32;100.00;98926.16;5110400;28;20088;-83
2023/01/16 08:53:52;;;;;;;104.00;48.75;;;;;;;5.28;100.00;98923.03;5110428;28;20079;-81
2023/01/16 08:56:19;;;;;;;101.60;49.83;;;;;;;5.16;100.00;98909.44;5110601;28;20526;-82
2023/01/16 08:58:45;;;;;;;116.05;53.60;;;;;;;4.81;100.00;98906.34;5110555;28;20031;-82
2023/01/16 09:01:10;;;;;;;106.03;51.25;;;;;;;4.92;100.00;98908.66;5110302;28;20035;-84
2023/01/16 09:03:36;;;;;;;92.43;45.55;;;;;;;4.84;100.00;98896.34;5110360;28;20034;-83
2023/01/16 09:06:02;;;;;;;93.90;45.03;;;;;;;4.86;100.00;98896.19;5110184;28;20024;-83
2023/01/16 09:08:28;;;;;;;88.15;44.75;;;;;;;4.54;100.00;98900.44;5108276;28;20079;-84
2023/01/16 09:13:49;;;;;;;87.72;43.75;;;;;;;4.30;100.00;98889.97;5110183;28;20050;-83
2023/01/16 09:16:19;;;;;;;86.13;43.40;;;;;;;4.43;100.00;98892.09;5110353;28;20386;-82
2023/01/16 09:18:45;;;;;;;81.47;40.45;;;;;;;4.43;100.00;98892.91;5103360;28;20043;-84
2023/01/16 09:21:11;;;;;;;91.20;45.10;;;;;;;4.80;100.00;98884.56;5096551;28;20031;-84
2023/01/16 09:23:36;;;;;;;83.57;43.85;;;;;;;4.63;100.00;98869.81;5097828;28;20031;-83
2023/01/16 09:26:02;;;;;;;95.03;48.75;;;;;;;4.84;100.00;98874.56;5096274;28;20060;-83
2023/01/16 09:28:27;;;;;;;101.65;50.03;;;;;;;4.89;100.00;98877.47;5094666;28;20093;-83
2023/01/16 09:30:53;;;;;;;99.30;49.90;;;;;;;4.79;100.00;98868.97;5096077;28;20051;-82
2023/01/16 09:33:18;;;;;;;112.90;51.72;;;;;;;4.75;100.00;98870.28;5096174;28;20103;-82
2023/01/16 09:35:44;;;;;;;104.40;51.63;;;;;;;4.60;100.00;98868.34;5095812;28;20374;-81
2023/01/16 09:38:09;;;;;;;109.38;53.35;;;;;;;4.55;100.00;98865.38;5095602;28;20083;-82
2023/01/16 09:40:35;;;;;;;112.30;54.65;;;;;;;4.22;100.00;98871.56;5095787;28;20172;-82
2023/01/16 09:46:12;;;;;;;128.10;59.22;;;;;;;4.04;100.00;98878.78;5094136;28;20036;-82
2023/01/16 09:48:49;;;;;;;121.88;58.85;;;;;;;4.14;100.00;98866.34;5095673;28;20032;-83
2023/01/16 09:51:22;;;;;;;126.65;60.10;;;;;;;4.17;100.00;98881.75;5095668;28;20115;-82
2023/01/16 09:59:41;;;;;;;155.93;67.45;;;;;;;4.56;100.00;98876.69;5095964;28;20035;-83
2023/01/16 10:02:36;;;;;;;149.07;68.38;;;;;;;4.62;100.00;98861.09;5098690;28;20033;-83
2023/01/16 10:05:04;;;;;;;159.82;72.00;;;;;;;4.48;100.00;98853.88;5020785;28;20050;-83
2023/01/16 10:07:29;;;;;;;156.60;72.97;;;;;;;4.38;100.00;98841.91;5014335;28;20084;-81
2023/01/16 10:10:09;;;;;;;171.63;75.65;;;;;;;4.23;100.00;98826.03;5013855;28;20069;-83
2023/01/16 10:12:39;;;;;;;194.20;81.55;;;;;;;4.18;100.00;98809.16;5013624;28;20045;-84
2023/01/16 10:15:26;;;;;;;198.18;78.10;;;;;;;4.14;100.00;98798.97;5037196;28;20052;-84
2023/01/16 10:18:36;;;;;;;222.55;84.85;;;;;;;4.19;100.00;98788.00;5097754;28;20040;-82
2023/01/16 10:21:49;;;;;;;210.95;86.85;;;;;;;4.22;100.00;98784.22;5094683;28;20036;-83
2023/01/16 10:24:49;;;;;;;216.85;85.25;;;;;;;4.24;100.00;98779.66;5012847;28;20129;-82
2023/01/16 10:27:32;;;;;;;230.65;96.03;;;;;;;4.16;100.00;98780.47;5002849;28;20050;-81
2023/01/16 10:30:02;;;;;;;;;;;;;;;4.25;100.00;98758.50;4996744;28;20050;-82
2023/01/16 10:32:34;;;;;;;241.63;98.25;;;;;;;4.40;100.00;98766.53;4996751;28;20298;-83
2023/01/16 10:35:05;;;;;;;245.82;99.75;;;;;;;4.44;100.00;98752.91;5094355;28;20036;-82
2023/01/16 10:37:34;;;;;;;257.42;100.45;;;;;;;4.51;100.00;98738.13;5095385;28;20501;-84
2023/01/16 10:40:15;;;;;;;254.60;105.32;;;;;;;4.54;100.00;98735.19;5095347;28;20477;-84
2023/01/16 10:51:04;;;;;;;251.40;107.50;;;;;;;4.76;100.00;98714.47;5095385;28;20035;-81
2023/01/16 10:53:31;;;;;;;250.63;103.88;;;;;;;4.80;100.00;98706.09;5094448;28;20054;-84
2023/01/16 10:55:58;;;;;;;255.52;105.80;;;;;;;4.81;100.00;98714.75;5094623;28;20040;-85
2023/01/16 10:58:36;;;;;;;252.07;104.80;;;;;;;4.93;100.00;98700.31;5096098;28;20059;-82
2023/01/16 11:01:27;;;;;;;252.38;102.97;;;;;;;4.90;100.00;98690.97;5077454;28;20092;-83
2023/01/16 11:03:58;;;;;;;237.75;97.40;;;;;;;5.00;100.00;98693.38;5094772;28;20093;-84
2023/01/16 11:06:26;;;;;;;235.68;94.72;;;;;;;4.97;100.00;98686.66;5095565;28;20036;-82
2023/01/16 11:09:02;;;;;;;251.15;103.35;;;;;;;5.09;100.00;98690.53;5093880;28;20092;-83
2023/01/16 11:20:13;;;;;;;245.23;97.80;;;;;;;4.96;100.00;98665.84;5092711;28;20123;-81
2023/01/16 11:22:40;;;;;;;251.80;98.93;;;;;;;4.92;100.00;98633.03;5094757;28;20114;-83
2023/01/16 11:25:17;;;;;;;266.65;102.30;;;;;;;4.86;100.00;98663.41;5093245;28;20036;-82
2023/01/16 11:27:44;;;;;;;270.23;105.57;;;;;;;4.92;100.00;98654.84;5094105;28;20040;-83
2023/01/16 11:30:26;;;;;;;256.42;102.25;;;;;;;4.92;100.00;98638.28;5094014;28;20036;-80
2023/01/16 11:32:54;;;;;;;268.00;102.25;;;;;;;4.92;100.00;98635.66;5092391;28;20385;-83
2023/01/16 11:35:25;;;;;;;282.30;108.68;;;;;;;4.97;100.00;98601.84;5093276;28;20392;-84
2023/01/16 11:37:52;;;;;;;275.20;106.75;;;;;;;4.90;100.00;98595.66;5093424;28;20504;-83
2023/01/16 11:40:24;;;;;;;268.45;105.22;;;;;;;4.92;100.00;98583.16;5092474;28;20414;-84
2023/01/16 11:46:02;;;;;;;282.35;109.45;;;;;;;5.01;100.00;98595.25;5093362;28;20130;-83
2023/01/16 11:48:48;;;;;;;275.17;107.75;;;;;;;5.06;100.00;98590.31;5093587;28;20059;-83
2023/01/16 11:51:17;;;;;;;286.63;107.03;;;;;;;4.96;100.00;98589.72;5093924;28;20472;-83
2023/01/16 11:53:46;;;;;;;307.33;118.15;;;;;;;4.90;100.00;98548.41;5093139;28;20430;-86
2023/01/16 11:56:30;;;;;;;286.02;111.13;;;;;;;4.86;100.00;98579.44;5095817;28;20024;-89
2023/01/16 11:59:25;;;;;;;305.95;112.00;;;;;;;4.91;100.00;98539.53;5086054;28;20116;-86
2023/01/16 12:02:21;;;;;;;317.77;119.22;;;;;;;5.02;100.00;98529.47;5027377;28;20053;-84
2023/01/16 12:08:08;;;;;;;325.35;119.43;;;;;;;5.05;100.00;98525.66;5030302;28;20053;-87
2023/01/16 12:10:33;;;;;;;329.10;120.68;;;;;;;5.17;100.00;98519.81;5018701;28;20041;-89
2023/01/16 12:16:07;;;;;;;319.80;116.57;;;;;;;5.17;100.00;98498.00;5078041;28;20430;-90
2023/01/16 12:18:57;;;;;;;261.58;90.43;;;;;;;5.22;100.00;98475.47;5078827;28;20113;-88
2023/01/16 12:21:28;;;;;;;281.08;106.75;;;;;;;5.31;100.00;98468.31;5078767;28;20389;-84
2023/01/16 12:24:27;;;;;;;303.40;115.35;;;;;;;5.20;100.00;98456.44;5080584;28;20036;-90
2023/01/16 12:27:04;;;;;;;293.20;109.15;;;;;;;5.31;100.00;98438.59;5018397;28;20058;-88
2023/01/16 12:29:50;;;;;;;308.00;112.68;;;;;;;5.35;100.00;98432.00;5018640;28;20083;-87